Ar Rutbah, Iraq
Current Conditions -  °F | °C
As of 5:18 AM on Monday 26 Jan 2015 (Local Time) from KQAJ Reporting Station
Haze Haze  
Wind Chill: 50°   Ceiling: Unl
Heat Index: 50°   Visibility: 2.5mi
Dew Point: 48°   Wind: 8mph
Humidity: 94%   Direction: 200°SSW
Pressure: 30.2"   Gusts: NA
Location:  33.04°N, 40.3°E
Report Text: KQAJ 260218Z 20007KT 4000 BR FEW001 10/09 A3020 RMK SLP226
Loading
Personal Weather Stations






























Interactive Weather Map New forecast layout! Learn more

10-Day Weather Forecast

Advertisements
Track Severe Weather on mobile